Etusivu
METAR-TAF:

METAR-TAF

Lentoasemat :

San Rafael, Argentiina

Leveyspiiri: 34-35S, Pituuspiiri: 068-24W, korkeus merenpinnasta: 745 m

Tämänhetkinen sää

Tämä raportti tehtiin 25 tuntia ja 6 minuuttia sitten, kello 11.50 UTC
Tuuli 8 kn idästä/kaakosta
Lämpötila 20°C
Kosteus 88%
Ilmanpaine 1006 hPa
Näkyvyys 10 km tai enemmän
Muutamia pilviä 700 ft:n korkeudessa
Hajanaisia pilviä 1500 ft:n korkeudessa
Hajonneita pilviä 3500 ft:n korkeudessa

METAR: SAMR 171150Z 11008KT 9999 FEW007 SCT015 BKN035 20/18 Q1006

Aika: 09:56 (12:56 UTC)


TAF: puuttuu

Säähavainnot ja -ennusteet yli 4000 lentoasemalta (METAR- ja TAF-raportit).

Käytössä olevat sääasemat on merkitty karttaan keltaisilla ja punaisilla pisteillä.

Aseta hiiri pisteen päälle nähdäksesi sääaseman nimen.

Klikkaa sitten nähdäksesi säähavainnot ja -ennusteet.

Kartan vaihtaminen: klikkaa mustalla rastilla varustettuja vihreitä pisteitä, niin voit zoomata sisään; viivalla varustettua vihreää pistettä, niin voit zoomata ulos tai vihreitä nuolia, niin pääset viereisille kartoille.


METAR-TAF: